createdAt,value
2024-03-18T00:00:59.267Z,1.40
2024-03-18T00:03:34.835Z,1.30
2024-03-18T00:06:02.049Z,1.50
2024-03-18T00:08:29.229Z,1.40
2024-03-18T00:10:56.369Z,1.70
2024-03-18T00:13:23.641Z,1.40
2024-03-18T00:15:50.779Z,1.70
2024-03-18T00:18:17.974Z,1.50
2024-03-18T00:20:45.196Z,1.70
2024-03-18T00:23:12.444Z,2.00
2024-03-18T00:25:39.682Z,2.30
2024-03-18T00:28:08.627Z,1.70
2024-03-18T00:30:38.267Z,1.80
2024-03-18T00:33:07.623Z,1.30
2024-03-18T00:35:35.014Z,1.50
2024-03-18T00:38:02.916Z,1.70
2024-03-18T00:40:30.436Z,2.30
2024-03-18T00:42:58.035Z,2.70
2024-03-18T00:45:25.202Z,1.80
2024-03-18T00:47:52.412Z,2.60
2024-03-18T00:50:19.907Z,1.70
2024-03-18T00:52:47.610Z,1.80
2024-03-18T00:55:14.852Z,1.70
2024-03-18T00:57:42.023Z,2.90
2024-03-18T01:00:12.492Z,2.10
2024-03-18T01:02:40.075Z,3.50
2024-03-18T01:05:10.476Z,1.70
2024-03-18T01:07:39.311Z,1.70
2024-03-18T01:10:07.223Z,5.60
2024-03-18T01:12:35.002Z,4.80
2024-03-18T01:15:02.685Z,2.70
2024-03-18T01:17:29.882Z,3.30
2024-03-18T01:19:57.043Z,3.30
2024-03-18T01:22:25.346Z,4.90
2024-03-18T01:24:52.611Z,2.00
2024-03-18T01:27:19.816Z,2.40
2024-03-18T01:29:49.461Z,3.90
2024-03-18T01:32:17.305Z,1.70
2024-03-18T01:34:44.483Z,3.30
2024-03-18T01:37:11.703Z,3.70
2024-03-18T01:39:38.923Z,4.00
2024-03-18T01:42:06.332Z,3.10
2024-03-18T01:44:33.494Z,2.10
2024-03-18T01:47:01.008Z,2.80
2024-03-18T01:49:28.228Z,1.50
2024-03-18T01:51:55.567Z,1.90
2024-03-18T01:54:22.796Z,1.80
2024-03-18T01:56:49.938Z,1.70
2024-03-18T01:59:17.091Z,1.80
2024-03-18T02:01:44.240Z,1.60
2024-03-18T02:04:12.285Z,1.60
2024-03-18T02:06:42.624Z,1.60
2024-03-18T02:09:10.259Z,1.20
2024-03-18T02:11:37.476Z,1.20
2024-03-18T02:14:15.329Z,1.30
2024-03-18T02:16:43.587Z,1.50
2024-03-18T02:19:11.050Z,1.10
2024-03-18T02:21:38.340Z,1.70
2024-03-18T02:24:07.801Z,1.40
2024-03-18T02:26:34.994Z,1.10
2024-03-18T02:29:02.728Z,1.60
2024-03-18T02:31:29.970Z,1.50
2024-03-18T02:33:57.121Z,6.00
2024-03-18T02:36:24.291Z,1.60
2024-03-18T02:38:53.574Z,1.70
2024-03-18T02:41:21.311Z,1.70
2024-03-18T02:43:48.923Z,2.70
2024-03-18T02:46:16.085Z,2.70
2024-03-18T02:48:43.579Z,1.60
2024-03-18T02:51:10.790Z,2.20
2024-03-18T02:53:37.983Z,1.30
2024-03-18T02:56:05.245Z,2.90
2024-03-18T02:58:32.394Z,1.20
2024-03-18T03:00:59.940Z,4.20
2024-03-18T03:03:27.245Z,2.50
2024-03-18T03:05:55.000Z,2.90
2024-03-18T03:08:23.737Z,1.50
2024-03-18T03:10:50.868Z,2.00
2024-03-18T03:13:17.990Z,2.50
2024-03-18T03:15:45.145Z,2.20
2024-03-18T03:18:12.318Z,2.10
2024-03-18T03:20:39.514Z,3.00
2024-03-18T03:23:06.652Z,2.10
2024-03-18T03:25:33.799Z,2.80
2024-03-18T03:28:01.061Z,5.50
2024-03-18T03:30:28.220Z,4.10
2024-03-18T03:32:55.442Z,6.20
2024-03-18T03:35:22.964Z,3.90
2024-03-18T03:37:50.277Z,2.40
2024-03-18T03:40:17.576Z,1.70
2024-03-18T03:42:44.762Z,1.90
2024-03-18T03:45:12.048Z,1.30
2024-03-18T03:47:39.887Z,1.70
2024-03-18T03:50:10.280Z,3.90
2024-03-18T03:52:37.436Z,4.90
2024-03-18T03:55:04.950Z,2.60
2024-03-18T03:57:32.169Z,2.10
2024-03-18T03:59:59.369Z,4.10
2024-03-18T04:02:26.601Z,2.40
2024-03-18T04:04:53.876Z,2.60
2024-03-18T04:07:24.727Z,2.30
2024-03-18T04:09:51.997Z,3.70
2024-03-18T04:12:19.442Z,1.90
2024-03-18T04:14:48.447Z,1.60
2024-03-18T04:17:16.645Z,1.50
2024-03-18T04:19:43.814Z,1.40
2024-03-18T04:22:11.920Z,1.60
2024-03-18T04:24:39.434Z,1.20
2024-03-18T04:27:06.581Z,1.60
2024-03-18T04:29:33.841Z,1.20
2024-03-18T04:32:01.302Z,1.80
2024-03-18T04:34:30.748Z,1.40
2024-03-18T04:36:58.177Z,4.30
2024-03-18T04:39:25.438Z,2.10
2024-03-18T04:41:52.758Z,2.80
2024-03-18T04:44:19.947Z,2.30
2024-03-18T04:46:47.152Z,2.40
2024-03-18T04:49:14.274Z,5.80
2024-03-18T04:51:41.449Z,4.30
2024-03-18T04:54:08.603Z,3.50
2024-03-18T04:56:35.843Z,2.60
2024-03-18T04:59:03.967Z,5.60
2024-03-18T05:01:31.950Z,2.30
2024-03-18T05:04:00.604Z,4.60
2024-03-18T05:06:28.372Z,3.00
2024-03-18T05:08:55.868Z,5.60
2024-03-18T05:11:23.095Z,4.90
2024-03-18T05:13:50.285Z,5.80
2024-03-18T05:16:20.285Z,3.60
2024-03-18T05:18:49.142Z,2.10
2024-03-18T05:21:16.476Z,2.60
2024-03-18T05:23:43.641Z,4.20
2024-03-18T05:26:13.048Z,2.50
2024-03-18T05:28:40.295Z,4.70
2024-03-18T05:31:07.474Z,7.60
2024-03-18T05:33:34.631Z,4.30
2024-03-18T05:36:01.917Z,6.10
2024-03-18T05:38:29.098Z,2.60
2024-03-18T05:40:56.309Z,4.40
2024-03-18T05:43:25.060Z,5.60
2024-03-18T05:45:52.165Z,3.50
2024-03-18T05:48:19.922Z,4.20
2024-03-18T05:50:47.107Z,2.90
2024-03-18T05:53:15.157Z,8.50
2024-03-18T05:55:42.329Z,6.60
2024-03-18T05:58:09.503Z,5.40
2024-03-18T06:00:38.867Z,5.00
2024-03-18T06:03:06.730Z,3.20
2024-03-18T06:05:34.056Z,5.30
2024-03-18T06:08:01.283Z,4.30
2024-03-18T06:10:28.504Z,6.00
2024-03-18T06:12:55.696Z,6.10
2024-03-18T06:15:22.882Z,3.50
2024-03-18T06:17:50.875Z,4.60
2024-03-18T06:20:18.733Z,3.50
2024-03-18T06:22:48.225Z,3.40
2024-03-18T06:25:32.164Z,3.40
2024-03-18T06:27:59.307Z,3.70
2024-03-18T06:30:26.527Z,3.90
2024-03-18T06:32:53.785Z,3.10
2024-03-18T06:35:21.073Z,3.20
2024-03-18T06:37:48.275Z,3.00
2024-03-18T06:40:20.232Z,3.00
2024-03-18T06:42:52.223Z,3.90
2024-03-18T06:45:21.145Z,2.90
2024-03-18T06:47:50.218Z,2.70
2024-03-18T06:50:21.058Z,3.70
2024-03-18T06:52:48.538Z,3.50
2024-03-18T06:55:15.765Z,4.00
2024-03-18T06:57:42.930Z,2.90
2024-03-18T07:00:10.692Z,2.80
2024-03-18T07:02:37.941Z,2.90
2024-03-18T07:05:05.698Z,2.80
2024-03-18T07:07:33.092Z,2.10
2024-03-18T07:10:00.289Z,1.90
2024-03-18T07:12:27.660Z,2.30
2024-03-18T07:14:54.900Z,1.80
2024-03-18T07:17:22.342Z,1.60
2024-03-18T07:20:02.927Z,2.90
2024-03-18T07:22:39.498Z,2.00
2024-03-18T07:25:10.894Z,4.00
2024-03-18T07:27:42.853Z,3.00
2024-03-18T07:30:14.604Z,2.10
2024-03-18T07:32:42.499Z,1.80
2024-03-18T07:35:15.985Z,1.20
2024-03-18T07:37:43.647Z,1.90
2024-03-18T07:40:12.537Z,1.10
2024-03-18T07:42:41.271Z,1.80
2024-03-18T07:45:09.537Z,5.10
2024-03-18T07:47:36.956Z,2.20
2024-03-18T07:50:04.966Z,2.10
2024-03-18T07:52:32.374Z,1.80
2024-03-18T07:55:01.404Z,2.20
2024-03-18T07:57:29.343Z,3.10
2024-03-18T07:59:56.690Z,4.20
2024-03-18T08:02:23.859Z,2.90
2024-03-18T08:04:53.535Z,4.30
2024-03-18T08:07:20.805Z,5.50
2024-03-18T08:09:48.049Z,2.50
2024-03-18T08:12:15.230Z,3.30
2024-03-18T08:14:44.792Z,3.90
2024-03-18T08:17:12.398Z,2.60
2024-03-18T08:19:39.635Z,4.20
2024-03-18T08:22:13.959Z,2.10
2024-03-18T08:24:47.384Z,2.10
2024-03-18T08:27:15.166Z,2.30
2024-03-18T08:29:42.500Z,2.50
2024-03-18T08:32:10.445Z,8.60
2024-03-18T08:34:38.278Z,8.70
2024-03-18T08:37:05.475Z,5.70
2024-03-18T08:39:32.811Z,13.60
2024-03-18T08:42:00.044Z,16.30
2024-03-18T08:44:27.418Z,12.00
2024-03-18T08:46:54.754Z,6.00
2024-03-18T08:49:24.765Z,4.20
2024-03-18T08:51:51.926Z,6.80
2024-03-18T08:54:19.102Z,4.90
2024-03-18T08:56:46.399Z,9.60
2024-03-18T08:59:14.314Z,6.00
2024-03-18T09:01:41.609Z,6.50
2024-03-18T09:04:14.447Z,3.20
2024-03-18T09:06:49.036Z,4.30
2024-03-18T09:09:16.333Z,6.50
2024-03-18T09:11:43.988Z,5.70
2024-03-18T09:14:11.368Z,12.10
2024-03-18T09:16:38.594Z,9.50
2024-03-18T09:19:05.714Z,4.50
2024-03-18T09:21:32.930Z,4.20
2024-03-18T09:24:00.329Z,5.90
2024-03-18T09:26:27.455Z,4.30
2024-03-18T09:28:54.613Z,6.40
2024-03-18T09:31:21.839Z,3.20
2024-03-18T09:33:49.159Z,1.90
2024-03-18T09:36:16.382Z,2.10
2024-03-18T09:38:43.571Z,2.60
2024-03-18T09:41:18.304Z,2.10
2024-03-18T09:43:48.783Z,3.30
2024-03-18T09:46:20.147Z,1.60
2024-03-18T09:48:50.253Z,13.90
2024-03-18T09:51:21.521Z,5.30
2024-03-18T09:53:48.776Z,5.10
2024-03-18T09:56:16.509Z,6.00
2024-03-18T09:58:44.071Z,3.80
2024-03-18T10:01:14.204Z,3.80
2024-03-18T10:03:42.288Z,6.90
2024-03-18T10:06:09.626Z,3.30
2024-03-18T10:08:38.077Z,2.90
2024-03-18T10:11:05.335Z,3.10
2024-03-18T10:13:38.184Z,3.50
2024-03-18T10:25:12.817Z,6.00
2024-03-18T11:01:00.035Z,25.80
2024-03-18T11:03:50.447Z,41.90
2024-03-18T11:06:21.427Z,32.90
2024-03-18T11:08:56.794Z,19.90
2024-03-18T11:11:25.290Z,18.40
2024-03-18T11:13:53.733Z,8.60
2024-03-18T11:16:20.928Z,8.20
2024-03-18T11:18:49.405Z,7.90
2024-03-18T11:21:19.575Z,19.00
2024-03-18T11:24:04.256Z,45.10
2024-03-18T11:26:31.898Z,21.40
2024-03-18T11:29:10.045Z,12.40
2024-03-18T11:31:39.052Z,18.20
2024-03-18T11:34:08.202Z,7.30
2024-03-18T11:36:49.200Z,5.40
2024-03-18T11:39:18.103Z,5.70
2024-03-18T11:41:45.518Z,5.70
2024-03-18T11:44:14.648Z,4.00
2024-03-18T11:46:43.108Z,5.80
2024-03-18T11:49:21.293Z,5.90
2024-03-18T11:51:48.846Z,7.00
2024-03-18T11:54:16.008Z,4.00
2024-03-18T11:56:43.924Z,4.30
2024-03-18T11:59:15.848Z,3.20
2024-03-18T12:01:43.702Z,3.00
2024-03-18T12:04:10.911Z,2.30
2024-03-18T12:06:39.439Z,8.00
2024-03-18T12:09:07.041Z,19.30
2024-03-18T12:11:34.773Z,14.00
2024-03-18T12:14:02.129Z,14.00
2024-03-18T12:16:39.724Z,4.90
2024-03-18T12:19:12.769Z,3.80
2024-03-18T12:21:43.247Z,3.10
2024-03-18T12:24:28.202Z,6.90
2024-03-18T12:27:11.495Z,5.90
2024-03-18T12:29:39.020Z,4.30
2024-03-18T12:32:06.507Z,3.60
2024-03-18T12:34:33.655Z,14.60
2024-03-18T12:37:01.005Z,6.40
2024-03-18T12:39:31.965Z,4.50
2024-03-18T12:42:03.226Z,2.40
2024-03-18T12:44:30.530Z,3.90
2024-03-18T12:46:58.330Z,3.10
2024-03-18T12:49:25.504Z,3.30
2024-03-18T12:51:52.703Z,2.90
2024-03-18T12:54:19.947Z,2.70
2024-03-18T12:56:47.276Z,3.90
2024-03-18T12:59:14.794Z,4.70
2024-03-18T13:01:43.449Z,6.30
2024-03-18T13:04:12.720Z,3.80
2024-03-18T13:06:41.283Z,8.20
2024-03-18T13:09:09.111Z,20.40
2024-03-18T13:11:36.310Z,12.30
2024-03-18T13:14:03.500Z,5.30
2024-03-18T13:16:31.798Z,6.60
2024-03-18T13:18:59.323Z,6.80
2024-03-18T13:21:26.689Z,8.20
2024-03-18T13:23:53.884Z,5.50
2024-03-18T13:26:21.030Z,2.70
2024-03-18T13:28:48.382Z,3.60
2024-03-18T13:31:25.689Z,3.30
2024-03-18T13:33:53.546Z,4.50
2024-03-18T13:36:20.697Z,6.30
2024-03-18T13:38:47.896Z,12.80
2024-03-18T13:41:16.505Z,8.20
2024-03-18T13:43:44.559Z,4.40
2024-03-18T13:46:12.326Z,9.00
2024-03-18T13:48:39.741Z,3.20
2024-03-18T13:51:12.743Z,4.70
2024-03-18T13:53:41.048Z,5.10
2024-03-18T13:56:08.309Z,9.40
2024-03-18T13:58:35.651Z,3.40
2024-03-18T14:01:05.930Z,2.90
2024-03-18T14:03:34.225Z,5.00
2024-03-18T14:06:01.372Z,6.70
2024-03-18T14:08:28.513Z,5.80
2024-03-18T14:10:56.424Z,6.20
2024-03-18T14:13:24.581Z,10.40
2024-03-18T14:15:51.739Z,3.80
2024-03-18T14:18:18.919Z,7.10
2024-03-18T14:20:46.148Z,5.80
2024-03-18T14:23:13.309Z,5.50
2024-03-18T14:25:40.496Z,5.00
2024-03-18T14:28:08.067Z,4.00
2024-03-18T14:30:35.495Z,6.90
2024-03-18T14:33:02.784Z,4.60
2024-03-18T14:35:30.199Z,4.20
2024-03-18T14:37:57.841Z,4.90
2024-03-18T14:40:27.428Z,5.40
2024-03-18T14:42:54.818Z,9.00
2024-03-18T14:45:22.570Z,10.20
2024-03-18T14:47:50.413Z,12.40
2024-03-18T14:50:17.720Z,56.90
2024-03-18T14:52:45.392Z,23.70
2024-03-18T14:55:20.370Z,10.80
2024-03-18T14:57:47.598Z,28.30
2024-03-18T15:00:15.541Z,7.50
2024-03-18T15:02:43.033Z,5.40
2024-03-18T15:05:10.678Z,5.30
2024-03-18T15:07:37.852Z,4.90
2024-03-18T15:10:10.318Z,4.90
2024-03-18T15:12:38.631Z,3.80
2024-03-18T15:15:08.596Z,4.30
2024-03-18T15:17:51.583Z,3.60
2024-03-18T15:20:19.760Z,7.90
2024-03-18T15:22:48.649Z,8.20
2024-03-18T15:25:35.070Z,19.70
2024-03-18T15:28:02.929Z,7.70
2024-03-18T15:30:30.481Z,10.20
2024-03-18T15:33:01.777Z,9.30
2024-03-18T15:35:32.118Z,5.80
2024-03-18T15:37:59.289Z,5.70
2024-03-18T15:40:26.634Z,6.80
2024-03-18T15:42:53.815Z,8.40
2024-03-18T15:45:21.425Z,5.00
2024-03-18T15:47:48.735Z,7.50
2024-03-18T15:50:15.963Z,8.10
2024-03-18T15:52:43.207Z,5.60
2024-03-18T15:55:10.590Z,5.40
2024-03-18T15:57:37.775Z,6.10
2024-03-18T16:00:14.836Z,6.30
2024-03-18T16:02:42.582Z,3.70
2024-03-18T16:05:09.778Z,4.00
2024-03-18T16:07:37.020Z,6.80
2024-03-18T16:10:10.770Z,4.80
2024-03-18T16:12:39.523Z,5.00
2024-03-18T16:15:10.608Z,12.90
2024-03-18T16:17:38.905Z,31.40
2024-03-18T16:20:11.400Z,16.90
2024-03-18T16:22:38.608Z,36.40
2024-03-18T16:25:05.917Z,16.90
2024-03-18T16:27:33.104Z,12.20
2024-03-18T16:30:00.406Z,9.20
2024-03-18T16:32:27.619Z,9.50
2024-03-18T16:34:54.786Z,7.00
2024-03-18T16:37:21.985Z,6.40
2024-03-18T16:39:49.375Z,5.20
2024-03-18T16:42:18.679Z,14.40
2024-03-18T16:44:45.932Z,46.50
2024-03-18T16:47:13.146Z,46.50
2024-03-18T16:49:40.597Z,49.20
2024-03-18T16:52:07.936Z,17.20
2024-03-18T16:54:35.137Z,24.20
2024-03-18T16:57:02.425Z,13.70
2024-03-18T16:59:29.653Z,9.60
2024-03-18T17:01:56.813Z,28.70
2024-03-18T17:04:24.638Z,14.30
2024-03-18T17:06:53.923Z,32.10
2024-03-18T17:09:24.742Z,9.20
2024-03-18T17:11:51.925Z,22.80
2024-03-18T17:14:23.465Z,8.30
2024-03-18T17:16:50.913Z,6.90
2024-03-18T17:19:18.239Z,7.20
2024-03-18T17:21:46.937Z,6.20
2024-03-18T17:24:16.381Z,5.40
2024-03-18T17:26:43.881Z,9.20
2024-03-18T17:29:11.870Z,12.90
2024-03-18T17:31:40.690Z,19.30
2024-03-18T17:34:08.021Z,5.50
2024-03-18T17:37:04.349Z,60.50
2024-03-18T17:39:22.374Z,14.70
2024-03-18T17:41:49.566Z,12.00
2024-03-18T17:44:17.806Z,20.80
2024-03-18T17:46:45.725Z,15.60
2024-03-18T17:49:12.933Z,16.00
2024-03-18T17:51:40.129Z,12.20
2024-03-18T17:54:07.818Z,20.80
2024-03-18T17:56:35.117Z,10.70
2024-03-18T17:59:09.891Z,6.30
2024-03-18T18:01:37.161Z,4.60
2024-03-18T18:04:05.338Z,4.70
2024-03-18T18:06:34.303Z,4.40
2024-03-18T18:09:06.393Z,5.30
2024-03-18T18:11:34.168Z,4.80
2024-03-18T18:14:01.352Z,4.70
2024-03-18T18:16:28.957Z,5.90
2024-03-18T18:18:56.104Z,5.40
2024-03-18T18:21:23.317Z,4.80
2024-03-18T18:23:54.100Z,4.40
2024-03-18T18:26:21.828Z,4.70
2024-03-18T18:28:49.045Z,6.20
2024-03-18T18:31:17.408Z,7.10
2024-03-18T18:33:44.679Z,13.50
2024-03-18T18:36:11.899Z,12.20
2024-03-18T18:38:44.246Z,8.10
2024-03-18T18:41:11.993Z,5.60
2024-03-18T18:43:41.001Z,6.30
2024-03-18T18:46:08.307Z,6.00
2024-03-18T18:48:35.575Z,7.40
2024-03-18T18:51:03.297Z,8.50
2024-03-18T18:53:32.637Z,8.70
2024-03-18T18:56:01.702Z,8.50
2024-03-18T18:58:30.443Z,7.50
2024-03-18T19:00:58.400Z,7.00
2024-03-18T19:03:26.452Z,6.20
2024-03-18T19:05:53.834Z,7.20
2024-03-18T19:08:22.188Z,7.90
2024-03-18T19:10:49.760Z,6.90
2024-03-18T19:13:18.752Z,6.30
2024-03-18T19:15:47.305Z,6.70
2024-03-18T19:18:14.743Z,6.70
2024-03-18T19:20:42.067Z,5.70
2024-03-18T19:23:09.283Z,4.70
2024-03-18T19:25:37.503Z,4.50
2024-03-18T19:28:12.408Z,4.50
2024-03-18T19:30:43.008Z,4.60
2024-03-18T19:33:10.246Z,4.60
2024-03-18T19:35:41.010Z,4.50
2024-03-18T19:38:08.568Z,4.40
2024-03-18T19:40:36.029Z,4.70
2024-03-18T19:43:04.840Z,4.90
2024-03-18T19:45:32.273Z,4.90
2024-03-18T19:47:59.430Z,5.80
2024-03-18T19:50:26.679Z,5.50
2024-03-18T19:52:54.747Z,4.40
2024-03-18T19:55:21.996Z,5.70
2024-03-18T19:57:49.178Z,7.20
2024-03-18T20:00:18.733Z,5.10
2024-03-18T20:02:45.991Z,6.10
2024-03-18T20:05:14.053Z,5.80
2024-03-18T20:07:41.623Z,7.60
2024-03-18T20:10:10.550Z,8.60
2024-03-18T20:12:47.243Z,10.40
2024-03-18T20:15:16.551Z,7.60
2024-03-18T20:17:46.559Z,8.20
2024-03-18T20:20:14.358Z,7.40
2024-03-18T20:22:43.872Z,6.00
2024-03-18T20:25:16.003Z,6.50
2024-03-18T20:27:47.786Z,6.30
2024-03-18T20:30:20.737Z,6.00
2024-03-18T20:32:48.615Z,5.30
2024-03-18T20:35:16.454Z,6.30
2024-03-18T20:37:48.284Z,7.90
2024-03-18T20:40:17.222Z,7.50
2024-03-18T20:42:46.506Z,6.50
2024-03-18T20:45:16.266Z,6.10
2024-03-18T20:47:46.769Z,8.20
2024-03-18T20:50:14.108Z,8.60
2024-03-18T20:52:41.713Z,6.10
2024-03-18T20:55:13.061Z,8.80
2024-03-18T20:57:41.681Z,7.20
2024-03-18T21:00:15.145Z,5.80
2024-03-18T21:02:47.080Z,6.80
2024-03-18T21:05:15.119Z,6.00
2024-03-18T21:07:45.228Z,6.00
2024-03-18T21:10:20.229Z,8.60
2024-03-18T21:12:51.379Z,6.30
2024-03-18T21:15:19.212Z,10.90
2024-03-18T21:17:46.573Z,9.60
2024-03-18T21:20:16.258Z,7.60
2024-03-18T21:22:47.836Z,10.20
2024-03-18T21:25:16.838Z,9.50
2024-03-18T21:27:46.019Z,7.20
2024-03-18T21:30:13.216Z,6.40
2024-03-18T21:32:40.907Z,6.70
2024-03-18T21:35:11.178Z,6.60
2024-03-18T21:37:38.581Z,7.20
2024-03-18T21:40:06.529Z,10.00
2024-03-18T21:42:34.728Z,7.00
2024-03-18T21:45:03.021Z,6.40
2024-03-18T21:47:30.233Z,6.00
2024-03-18T21:49:57.576Z,7.10
2024-03-18T21:52:24.945Z,6.90
2024-03-18T21:54:52.740Z,6.20
2024-03-18T21:57:19.945Z,6.90
2024-03-18T21:59:48.276Z,9.30
2024-03-18T22:02:15.932Z,7.10
2024-03-18T22:04:43.089Z,18.10
2024-03-18T22:07:10.296Z,11.80
2024-03-18T22:09:38.830Z,7.60
2024-03-18T22:12:06.447Z,7.00
2024-03-18T22:14:38.250Z,6.50
2024-03-18T22:17:12.093Z,6.70
2024-03-18T22:19:40.302Z,6.60
2024-03-18T22:22:08.380Z,6.40
2024-03-18T22:24:35.538Z,6.50
2024-03-18T22:27:02.806Z,6.20
2024-03-18T22:29:30.007Z,6.80
2024-03-18T22:31:57.246Z,6.10
2024-03-18T22:34:24.397Z,8.40
2024-03-18T22:36:51.544Z,7.30
2024-03-18T22:39:18.747Z,6.70
2024-03-18T22:41:45.916Z,7.00
2024-03-18T22:44:13.133Z,8.20
2024-03-18T22:46:40.331Z,8.30
2024-03-18T22:49:11.087Z,8.10
2024-03-18T22:51:38.349Z,8.00
2024-03-18T22:54:05.518Z,7.90
2024-03-18T22:56:33.566Z,7.60
2024-03-18T22:59:00.960Z,7.60
2024-03-18T23:01:28.189Z,7.60
2024-03-18T23:03:55.375Z,8.00
2024-03-18T23:06:22.812Z,8.10
2024-03-18T23:08:50.022Z,7.80
2024-03-18T23:11:17.268Z,8.90
2024-03-18T23:13:44.459Z,8.00
2024-03-18T23:16:11.753Z,7.80
2024-03-18T23:18:38.888Z,7.40
2024-03-18T23:21:06.092Z,6.40
2024-03-18T23:23:33.463Z,6.70
2024-03-18T23:26:02.226Z,6.90
2024-03-18T23:28:29.522Z,7.90
2024-03-18T23:30:56.806Z,7.80
2024-03-18T23:33:24.115Z,7.30
2024-03-18T23:35:51.482Z,7.70
2024-03-18T23:38:18.749Z,7.60
2024-03-18T23:40:47.634Z,7.50
2024-03-18T23:43:15.961Z,7.50
2024-03-18T23:45:59.460Z,7.30
2024-03-18T23:48:26.643Z,6.80
2024-03-18T23:50:53.796Z,7.20
2024-03-18T23:53:21.059Z,6.30
2024-03-18T23:55:48.281Z,7.30
2024-03-18T23:58:15.553Z,7.60
